Time;durP1;ratioP1;P1;durP2;ratioP2;P2;SDS_P1;SDS_P2;PMS_P1;PMS_P2;Temp;Humidity;BMP_temperature;BMP_pressure;BME280_temperature;BME280_humidity;BME280_pressure;Samples;Min_cycle;Max_cycle;Signal;HPM_P1;HPM_P2
2023/05/04 00:02:18;;;;;;;6.72;4.72;;;;;;;12.47;72.92;101080.09;5029745;28;20410;-48
2023/05/04 00:04:44;;;;;;;10.63;4.78;;;;;;;12.45;73.14;101076.88;5030308;28;20513;-46
2023/05/04 00:07:12;;;;;;;7.13;3.90;;;;;;;12.45;73.31;101078.84;5030362;28;20045;-46
2023/05/04 00:09:39;;;;;;;16.48;5.78;;;;;;;12.46;73.21;101078.50;5029805;28;20064;-46
2023/05/04 00:12:06;;;;;;;13.32;4.80;;;;;;;12.42;73.19;101079.53;5028755;28;20049;-50
2023/05/04 00:14:34;;;;;;;9.52;4.53;;;;;;;12.40;73.27;101079.91;5030216;28;20645;-53
2023/05/04 00:17:03;;;;;;;10.55;4.85;;;;;;;12.38;73.28;101079.44;5030137;28;20124;-46
2023/05/04 00:19:33;;;;;;;12.02;4.50;;;;;;;12.37;73.58;101075.03;5029589;28;20376;-47
2023/05/04 00:22:00;;;;;;;11.07;4.60;;;;;;;12.35;73.43;101073.75;5030071;28;20160;-45
2023/05/04 00:24:27;;;;;;;8.52;4.93;;;;;;;12.32;73.67;101077.22;5030516;28;20453;-48
2023/05/04 00:26:54;;;;;;;16.70;5.47;;;;;;;12.27;74.05;101069.97;5031212;28;20059;-49
2023/05/04 00:29:20;;;;;;;10.80;5.15;;;;;;;12.28;73.86;101071.59;5039102;28;20057;-45
2023/05/04 00:31:47;;;;;;;10.30;4.78;;;;;;;12.28;73.93;101073.56;5029829;28;20050;-45
2023/05/04 00:34:14;;;;;;;12.40;5.05;;;;;;;12.25;74.13;101066.72;5029758;28;20399;-45
2023/05/04 00:36:43;;;;;;;11.88;6.03;;;;;;;12.21;74.03;101069.38;5029480;28;20045;-45
2023/05/04 00:39:10;;;;;;;12.52;5.85;;;;;;;12.19;74.22;101057.00;5029370;28;20050;-46
2023/05/04 00:41:37;;;;;;;10.65;5.18;;;;;;;12.20;74.36;101064.19;5027542;28;20042;-50
2023/05/04 00:44:05;;;;;;;13.48;5.53;;;;;;;12.20;74.24;101058.66;5029162;28;20099;-46
2023/05/04 00:46:32;;;;;;;13.85;6.28;;;;;;;12.19;74.42;101068.94;5029024;28;20124;-45
2023/05/04 00:49:01;;;;;;;11.75;5.13;;;;;;;12.16;74.36;101063.25;5029406;28;20049;-46
2023/05/04 00:51:28;;;;;;;11.98;5.68;;;;;;;12.13;74.39;101070.31;5026186;28;20483;-45
2023/05/04 00:53:56;;;;;;;12.65;5.47;;;;;;;12.08;74.68;101078.06;5021804;28;20127;-46
2023/05/04 00:56:26;;;;;;;10.10;5.22;;;;;;;12.04;74.56;101079.94;5029734;28;20045;-46
2023/05/04 00:58:56;;;;;;;11.43;6.28;;;;;;;11.96;74.83;101073.34;5029814;28;20380;-48
2023/05/04 01:01:24;;;;;;;11.88;5.55;;;;;;;11.92;74.82;101082.69;5020374;28;20049;-49
2023/05/04 01:03:52;;;;;;;15.70;6.32;;;;;;;11.87;74.84;101088.47;5029006;28;20156;-45
2023/05/04 01:06:37;;;;;;;12.40;5.47;;;;;;;11.87;75.15;101082.91;5029107;28;20144;-47
2023/05/04 01:09:11;;;;;;;16.50;6.80;;;;;;;11.85;75.13;101086.03;5028992;28;20037;-45
2023/05/04 01:12:04;;;;;;;14.55;5.95;;;;;;;11.80;75.14;101075.19;5028893;28;20049;-46
2023/05/04 01:14:34;;;;;;;13.20;6.35;;;;;;;11.76;75.03;101068.69;5017663;28;20049;-47
2023/05/04 01:17:04;;;;;;;11.70;6.18;;;;;;;11.73;75.21;101068.59;5028752;28;20053;-46
2023/05/04 01:19:32;;;;;;;13.23;5.85;;;;;;;11.70;75.32;101069.28;5028429;28;20128;-46
2023/05/04 01:21:59;;;;;;;17.13;7.22;;;;;;;11.68;75.32;101066.78;5028649;28;20037;-45
2023/05/04 01:24:26;;;;;;;13.30;5.72;;;;;;;11.67;75.55;101067.16;5028903;28;20081;-46
2023/05/04 01:27:01;;;;;;;13.57;6.18;;;;;;;11.65;75.67;101056.38;5028628;28;20053;-46
2023/05/04 01:29:48;;;;;;;14.60;6.78;;;;;;;11.59;75.82;101041.16;5009464;28;20049;-46
2023/05/04 01:32:18;;;;;;;12.25;5.78;;;;;;;11.57;76.07;101047.03;5017403;28;20572;-50
2023/05/04 01:34:45;;;;;;;12.35;6.60;;;;;;;11.55;76.00;101031.88;5028542;28;20402;-46
2023/05/04 01:37:12;;;;;;;20.23;5.97;;;;;;;11.54;75.85;101042.16;5029099;28;20150;-47
2023/05/04 01:39:38;;;;;;;17.85;6.32;;;;;;;11.52;76.11;101032.56;5028458;28;20125;-50
2023/05/04 01:42:06;;;;;;;12.55;5.38;;;;;;;11.50;76.28;101029.34;5028677;28;20117;-45
2023/05/04 01:44:32;;;;;;;16.88;6.97;;;;;;;11.47;76.27;101025.28;5009995;28;20486;-45
2023/05/04 01:46:59;;;;;;;13.80;6.00;;;;;;;11.45;76.32;101032.34;5029332;28;20120;-45
2023/05/04 01:49:26;;;;;;;15.18;6.47;;;;;;;11.44;76.48;101031.50;5029007;28;20103;-46
2023/05/04 01:51:52;;;;;;;15.98;6.60;;;;;;;11.44;76.41;101042.59;5028318;28;20100;-46
2023/05/04 01:54:19;;;;;;;10.80;7.00;;;;;;;11.42;76.53;101036.59;5028697;28;20064;-45
2023/05/04 01:56:46;;;;;;;17.20;5.95;;;;;;;11.42;76.50;101033.00;5028261;28;20049;-45
2023/05/04 01:59:13;;;;;;;18.90;6.78;;;;;;;11.42;76.56;101022.75;5023964;28;20759;-48
2023/05/04 02:01:40;;;;;;;18.00;6.50;;;;;;;11.37;76.61;101017.41;5018331;28;20491;-46
2023/05/04 02:04:07;;;;;;;23.65;6.90;;;;;;;11.32;76.77;101009.34;5029751;28;20060;-45
2023/05/04 02:06:34;;;;;;;12.00;6.78;;;;;;;11.28;77.07;101011.16;5032238;28;20617;-47
2023/05/04 02:09:02;;;;;;;21.25;6.57;;;;;;;11.26;77.13;101002.38;5029724;28;20049;-45
2023/05/04 02:11:28;;;;;;;11.25;5.85;;;;;;;11.25;77.13;100999.97;5032280;28;20049;-47
2023/05/04 02:13:55;;;;;;;15.73;7.03;;;;;;;11.20;77.15;100987.13;5032101;28;20049;-48
2023/05/04 02:16:22;;;;;;;15.30;6.80;;;;;;;11.16;77.32;100988.97;5031911;28;20049;-45
2023/05/04 02:18:49;;;;;;;13.30;7.20;;;;;;;11.11;77.38;100983.66;5031718;28;20038;-46
2023/05/04 02:21:15;;;;;;;16.67;7.60;;;;;;;11.11;77.36;100982.84;5031863;28;20049;-45
2023/05/04 02:23:42;;;;;;;17.50;6.88;;;;;;;11.08;77.26;100984.34;5046888;28;20071;-49
2023/05/04 02:26:10;;;;;;;19.20;7.63;;;;;;;11.05;77.27;100985.00;5030286;28;20097;-46
2023/05/04 02:28:36;;;;;;;24.20;7.13;;;;;;;11.04;77.49;100988.91;5031629;28;20406;-46
2023/05/04 02:31:03;;;;;;;13.55;6.82;;;;;;;11.00;77.62;100988.81;5014121;28;20048;-45
2023/05/04 02:33:30;;;;;;;13.07;6.18;;;;;;;10.98;77.74;100995.84;5032101;28;20120;-45
2023/05/04 02:35:56;;;;;;;12.85;6.82;;;;;;;10.93;78.21;100993.31;5031446;28;20084;-45
2023/05/04 02:38:23;;;;;;;24.60;7.43;;;;;;;10.88;78.46;100993.53;5012602;28;20056;-48
2023/05/04 02:40:50;;;;;;;18.25;6.45;;;;;;;10.87;78.75;100991.88;5006959;28;20136;-46
2023/05/04 02:43:17;;;;;;;18.15;6.63;;;;;;;10.85;78.68;101008.03;5031829;28;20045;-45
2023/05/04 02:45:44;;;;;;;12.93;6.45;;;;;;;10.84;78.71;100995.34;5031636;28;20053;-46
2023/05/04 02:48:10;;;;;;;13.63;7.25;;;;;;;10.85;79.02;100996.97;5031473;28;20065;-45
2023/05/04 02:50:37;;;;;;;14.63;7.38;;;;;;;10.82;78.84;101008.72;5031212;28;20411;-46
2023/05/04 02:53:04;;;;;;;12.73;7.10;;;;;;;10.78;78.93;100991.97;5012675;28;20132;-46
2023/05/04 02:55:31;;;;;;;16.55;6.75;;;;;;;10.75;79.19;100991.84;5030981;28;20143;-47
2023/05/04 02:57:57;;;;;;;12.65;7.00;;;;;;;10.73;79.18;100989.41;5031774;28;20049;-45
2023/05/04 03:02:53;;;;;;;20.55;8.02;;;;;;;10.71;79.09;100986.19;4967811;23;20050;-45
2023/05/04 03:05:20;;;;;;;19.13;7.30;;;;;;;10.70;78.93;100983.72;5011210;28;20124;-47
2023/05/04 03:07:46;;;;;;;14.15;7.45;;;;;;;10.65;79.12;100975.63;5011369;28;20088;-46
2023/05/04 03:10:13;;;;;;;9.55;7.28;;;;;;;10.61;79.39;100971.94;5011357;28;20042;-43
2023/05/04 03:12:40;;;;;;;17.30;7.15;;;;;;;10.59;79.52;100960.41;5011426;28;20489;-49
2023/05/04 03:15:07;;;;;;;17.52;7.43;;;;;;;10.57;79.63;100957.16;5009550;28;20505;-45
2023/05/04 03:17:34;;;;;;;11.63;6.32;;;;;;;10.56;79.55;100958.31;5011114;28;20058;-44
2023/05/04 03:20:01;;;;;;;19.80;7.50;;;;;;;10.54;79.68;100960.63;4981609;28;20053;-45
2023/05/04 03:22:28;;;;;;;11.05;6.93;;;;;;;10.53;79.78;100956.22;5010991;28;20498;-44
2023/05/04 03:24:54;;;;;;;15.63;7.13;;;;;;;10.53;79.69;100953.44;5010918;28;20068;-43
2023/05/04 03:27:21;;;;;;;11.88;7.03;;;;;;;10.53;79.79;100956.22;5010789;28;20510;-43
2023/05/04 03:29:48;;;;;;;14.10;7.72;;;;;;;10.54;79.88;100955.09;5012109;28;20041;-45
2023/05/04 03:32:14;;;;;;;10.90;7.13;;;;;;;10.51;79.81;100937.16;5010175;28;20050;-44
2023/05/04 03:34:41;;;;;;;15.32;7.53;;;;;;;10.50;79.91;100934.75;5011132;28;20050;-45
2023/05/04 03:37:08;;;;;;;14.55;6.85;;;;;;;10.48;80.04;100932.34;5010638;28;20052;-43
2023/05/04 03:39:35;;;;;;;14.65;6.50;;;;;;;10.46;80.07;100925.53;5010729;28;20046;-47
2023/05/04 03:42:02;;;;;;;16.60;6.80;;;;;;;10.43;80.05;100920.66;5025626;28;20053;-48
2023/05/04 03:44:29;;;;;;;12.57;6.57;;;;;;;10.44;79.94;100914.78;5010595;28;20049;-43
2023/05/04 03:46:56;;;;;;;16.20;7.40;;;;;;;10.45;80.09;100916.41;5010977;28;20099;-43
2023/05/04 03:49:22;;;;;;;10.30;6.22;;;;;;;10.46;80.05;100911.69;5009785;28;20057;-43
2023/05/04 03:51:49;;;;;;;11.27;6.28;;;;;;;10.49;80.06;100905.44;5010439;28;20495;-43
2023/05/04 03:54:16;;;;;;;12.25;7.00;;;;;;;10.51;79.86;100908.69;5009964;28;20514;-48
2023/05/04 03:56:42;;;;;;;10.45;5.95;;;;;;;10.52;79.92;100904.75;5009952;28;20535;-43
2023/05/04 03:59:09;;;;;;;11.45;5.82;;;;;;;10.53;79.99;100907.22;5025704;28;20073;-43
2023/05/04 04:01:36;;;;;;;8.30;5.18;;;;;;;10.54;79.97;100892.19;5009892;28;20068;-46
2023/05/04 04:04:03;;;;;;;11.23;6.18;;;;;;;10.56;80.04;100891.88;5010335;28;20439;-43
2023/05/04 04:06:30;;;;;;;8.63;6.72;;;;;;;10.60;79.79;100890.03;5010813;28;20147;-44
2023/05/04 04:08:56;;;;;;;8.15;6.30;;;;;;;10.60;79.79;100878.94;5010307;28;20108;-43
2023/05/04 04:11:23;;;;;;;14.02;6.28;;;;;;;10.58;79.83;100875.72;5009986;28;20402;-43
2023/05/04 04:13:50;;;;;;;10.52;6.57;;;;;;;10.57;79.56;100869.38;5010034;28;20050;-44
2023/05/04 04:16:16;;;;;;;13.20;6.30;;;;;;;10.57;79.65;100874.09;5009902;28;20056;-43
2023/05/04 04:18:43;;;;;;;12.85;6.80;;;;;;;10.55;79.80;100870.88;5007509;28;20049;-43
2023/05/04 04:21:10;;;;;;;14.02;6.88;;;;;;;10.53;80.02;100871.22;5002253;28;20140;-43
2023/05/04 04:23:40;;;;;;;10.93;7.55;;;;;;;10.50;80.12;100866.38;5010294;28;20057;-44
2023/05/04 04:26:07;;;;;;;17.58;8.50;;;;;;;10.48;80.25;100860.38;5009956;28;20046;-44
2023/05/04 04:28:34;;;;;;;13.00;8.30;;;;;;;10.44;80.24;100855.84;5009211;28;20100;-43
2023/05/04 04:31:02;;;;;;;19.38;9.07;;;;;;;10.42;80.61;100850.66;5008344;28;20046;-45
2023/05/04 04:33:29;;;;;;;15.48;7.53;;;;;;;10.37;80.95;100853.63;5009746;28;20065;-43
2023/05/04 04:35:55;;;;;;;24.85;10.32;;;;;;;10.35;80.92;100851.19;5009609;28;20438;-43
2023/05/04 04:38:22;;;;;;;16.98;7.93;;;;;;;10.32;81.18;100840.84;5008138;28;20045;-44
2023/05/04 04:40:49;;;;;;;18.42;8.65;;;;;;;10.31;81.40;100832.84;5010270;28;20056;-44
2023/05/04 04:43:15;;;;;;;15.25;8.35;;;;;;;10.31;81.48;100844.75;5009640;28;20062;-43
2023/05/04 04:45:44;;;;;;;19.35;8.45;;;;;;;10.30;81.86;100839.53;5009652;28;20069;-43
2023/05/04 04:48:11;;;;;;;20.98;9.63;;;;;;;10.28;81.92;100834.34;5009916;28;20041;-43
2023/05/04 04:50:39;;;;;;;15.45;8.50;;;;;;;10.28;82.22;100828.00;5009549;28;20046;-43
2023/05/04 04:53:05;;;;;;;13.27;7.53;;;;;;;10.28;82.55;100819.69;5009436;28;20050;-44
2023/05/04 04:55:33;;;;;;;16.98;8.98;;;;;;;10.29;82.49;100827.69;5009062;28;20056;-44
2023/05/04 04:58:00;;;;;;;13.63;8.77;;;;;;;10.31;82.58;100827.31;5009606;28;20104;-44
2023/05/04 05:00:27;;;;;;;20.63;8.13;;;;;;;10.28;82.52;100828.81;5009368;28;20458;-44
2023/05/04 05:02:54;;;;;;;16.23;7.97;;;;;;;10.26;82.70;100831.13;5015227;28;20045;-43
2023/05/04 05:05:21;;;;;;;22.15;8.68;;;;;;;10.27;82.79;100827.19;5028839;28;20045;-43
2023/05/04 05:07:47;;;;;;;22.50;8.30;;;;;;;10.28;83.14;100826.03;5028983;28;20041;-43
2023/05/04 05:10:14;;;;;;;16.48;7.90;;;;;;;10.29;83.10;100819.38;5029077;28;20053;-43
2023/05/04 05:12:41;;;;;;;23.08;8.45;;;;;;;10.30;83.19;100820.97;5011463;28;20049;-43
2023/05/04 05:15:08;;;;;;;18.88;8.35;;;;;;;10.30;83.19;100811.84;5029953;28;20460;-49
2023/05/04 05:17:36;;;;;;;16.38;8.32;;;;;;;10.31;83.26;100811.53;5028709;28;20142;-43
2023/05/04 05:20:10;;;;;;;18.33;8.75;;;;;;;10.33;83.71;100812.00;5017294;28;20148;-43
2023/05/04 05:22:37;;;;;;;26.15;9.38;;;;;;;10.36;83.68;100818.81;5028887;28;20512;-44
2023/05/04 05:25:05;;;;;;;23.05;9.40;;;;;;;10.39;83.87;100824.47;5011215;28;20059;-43
2023/05/04 05:27:33;;;;;;;17.27;8.93;;;;;;;10.42;84.07;100822.16;5028889;28;20079;-43
2023/05/04 05:30:01;;;;;;;20.95;8.18;;;;;;;10.46;84.11;100812.03;5030253;28;20046;-47
2023/05/04 05:32:29;;;;;;;20.15;9.63;;;;;;;10.50;84.16;100807.41;5029098;28;20053;-43
2023/05/04 05:34:56;;;;;;;18.27;9.75;;;;;;;10.51;84.17;100817.34;5028710;28;20064;-44
2023/05/04 05:37:23;;;;;;;26.67;8.88;;;;;;;10.54;84.33;100811.13;5029257;28;20445;-43
2023/05/04 05:39:50;;;;;;;17.75;9.10;;;;;;;10.56;84.60;100811.59;5030676;28;20493;-43
2023/05/04 05:42:17;;;;;;;26.92;9.60;;;;;;;10.56;84.41;100817.94;5033116;28;20073;-44
2023/05/04 05:44:43;;;;;;;21.35;12.20;;;;;;;10.58;84.46;100810.09;5032512;28;20293;-48
2023/05/04 05:47:10;;;;;;;20.65;8.93;;;;;;;10.62;84.69;100818.50;5033677;28;20045;-43
2023/05/04 05:49:37;;;;;;;26.88;11.02;;;;;;;10.67;84.84;100819.09;5032243;28;20041;-43
2023/05/04 05:52:04;;;;;;;19.48;9.10;;;;;;;10.73;84.96;100811.38;5032581;28;20069;-43
2023/05/04 05:54:32;;;;;;;16.92;9.10;;;;;;;10.77;84.86;100815.09;5032765;28;20457;-43
2023/05/04 05:56:58;;;;;;;20.40;9.50;;;;;;;10.79;84.93;100810.81;5022772;28;20050;-43
2023/05/04 05:59:25;;;;;;;19.85;9.05;;;;;;;10.83;85.02;100800.66;5031850;28;20132;-43
2023/05/04 06:01:52;;;;;;;25.73;9.68;;;;;;;10.86;85.02;100796.38;5032087;28;20049;-43
2023/05/04 06:04:19;;;;;;;28.25;10.93;;;;;;;10.86;85.00;100799.16;5032424;28;20042;-45
2023/05/04 06:06:45;;;;;;;19.50;8.98;;;;;;;10.86;85.21;100796.38;5032114;28;20045;-43
2023/05/04 06:09:12;;;;;;;20.27;10.52;;;;;;;10.89;85.12;100792.91;5032219;28;20045;-43
2023/05/04 06:11:39;;;;;;;22.13;10.25;;;;;;;10.90;85.17;100789.00;5032496;28;20501;-44
2023/05/04 06:14:05;;;;;;;26.55;10.70;;;;;;;10.92;85.35;100797.78;5031805;28;20049;-43
2023/05/04 06:16:32;;;;;;;20.60;10.15;;;;;;;10.95;85.30;100783.22;5031784;28;20450;-47
2023/05/04 06:18:59;;;;;;;22.58;9.35;;;;;;;10.98;85.42;100782.53;5031976;28;20049;-45
2023/05/04 06:21:26;;;;;;;15.98;9.73;;;;;;;11.02;85.25;100770.41;5025889;28;20045;-45
2023/05/04 06:23:52;;;;;;;17.33;9.82;;;;;;;11.07;85.30;100771.34;5032145;28;20060;-43
2023/05/04 06:26:20;;;;;;;22.40;9.57;;;;;;;11.12;85.31;100760.03;5031892;28;20056;-43
2023/05/04 06:28:47;;;;;;;16.05;8.48;;;;;;;11.14;84.97;100764.06;5031588;28;20048;-48
2023/05/04 06:31:14;;;;;;;28.92;9.35;;;;;;;11.17;84.98;100760.59;5031908;28;20037;-43
2023/05/04 06:33:41;;;;;;;24.77;8.88;;;;;;;11.19;84.62;100755.50;5013814;28;20042;-44
2023/05/04 06:36:08;;;;;;;16.17;7.90;;;;;;;11.22;84.57;100748.47;5031671;28;20042;-43
2023/05/04 06:38:34;;;;;;;14.25;8.20;;;;;;;11.25;84.44;100751.31;5019273;28;20125;-45
2023/05/04 06:41:04;;;;;;;16.75;8.45;;;;;;;11.29;84.32;100749.47;5031329;28;20041;-44
2023/05/04 06:43:32;;;;;;;18.25;8.93;;;;;;;11.29;83.99;100743.94;5046335;28;20045;-46
2023/05/04 06:46:02;;;;;;;12.25;8.05;;;;;;;11.30;83.94;100741.97;5031519;28;20494;-45
2023/05/04 06:48:30;;;;;;;16.77;7.85;;;;;;;11.30;83.88;100737.25;5031413;28;20042;-49
2023/05/04 06:50:59;;;;;;;16.73;8.05;;;;;;;11.34;83.97;100742.88;5030932;28;20053;-45
2023/05/04 06:53:28;;;;;;;19.00;8.90;;;;;;;11.34;83.85;100738.16;5031612;28;20055;-47
2023/05/04 06:55:55;;;;;;;24.35;12.95;;;;;;;11.31;83.90;100743.56;5026001;28;20041;-49
2023/05/04 06:58:22;;;;;;;21.15;8.85;;;;;;;11.30;83.92;100736.44;5031167;28;20111;-44
2023/05/04 07:00:50;;;;;;;14.00;7.78;;;;;;;11.30;84.11;100736.44;5030652;28;20041;-46
2023/05/04 07:03:16;;;;;;;17.35;9.68;;;;;;;11.36;84.08;100741.38;4993831;28;20057;-46
2023/05/04 07:05:44;;;;;;;16.13;8.05;;;;;;;11.42;84.05;100736.38;5028986;28;20078;-45
2023/05/04 07:08:11;;;;;;;22.92;8.40;;;;;;;11.44;84.10;100737.66;5030918;28;20068;-43
2023/05/04 07:10:38;;;;;;;18.50;7.70;;;;;;;11.49;84.10;100745.72;5013103;28;20049;-51
2023/05/04 07:13:05;;;;;;;19.55;9.63;;;;;;;11.50;84.11;100741.81;5031638;28;20041;-44
2023/05/04 07:15:32;;;;;;;14.10;7.57;;;;;;;11.55;83.96;100738.78;5030845;28;20085;-43
2023/05/04 07:18:00;;;;;;;17.67;8.00;;;;;;;11.58;84.00;100731.72;5030582;28;20107;-43
2023/05/04 07:20:27;;;;;;;12.93;7.00;;;;;;;11.57;84.07;100730.91;5030870;28;20077;-48
2023/05/04 07:22:58;;;;;;;15.45;8.13;;;;;;;11.57;84.00;100724.53;5034869;28;20057;-46
2023/05/04 07:25:25;;;;;;;21.63;11.05;;;;;;;11.60;84.03;100724.66;5030561;28;20045;-45
2023/05/04 07:27:53;;;;;;;12.27;7.57;;;;;;;11.61;84.08;100720.75;5030655;28;20126;-45
2023/05/04 07:30:20;;;;;;;18.55;6.68;;;;;;;11.67;84.13;100728.81;5031809;28;20050;-45
2023/05/04 07:32:47;;;;;;;15.30;8.07;;;;;;;11.76;84.05;100721.16;5030692;28;20158;-47
2023/05/04 07:35:14;;;;;;;20.80;7.88;;;;;;;11.85;83.88;100724.59;5030804;28;20398;-47
2023/05/04 07:37:40;;;;;;;15.88;8.07;;;;;;;11.90;83.83;100724.34;5030522;28;20392;-47
2023/05/04 07:40:08;;;;;;;17.15;7.53;;;;;;;11.96;83.60;100720.16;5030755;28;20052;-45
2023/05/04 07:42:35;;;;;;;15.65;8.02;;;;;;;12.01;83.55;100729.03;5030708;28;20049;-45
2023/05/04 07:45:02;;;;;;;22.08;8.85;;;;;;;12.04;83.39;100728.31;5021924;28;20045;-46
2023/05/04 07:47:29;;;;;;;19.88;8.15;;;;;;;12.04;82.95;100730.28;5013828;28;20046;-45
2023/05/04 07:49:56;;;;;;;19.23;7.78;;;;;;;12.01;82.76;100728.22;5013093;28;20505;-49
2023/05/04 07:52:22;;;;;;;18.13;8.00;;;;;;;12.01;82.79;100723.47;5011923;28;20041;-45
2023/05/04 07:54:53;;;;;;;23.88;9.63;;;;;;;12.03;82.66;100714.78;5012035;28;20045;-45
2023/05/04 07:57:21;;;;;;;30.08;8.93;;;;;;;12.01;82.46;100712.38;5010583;28;20186;-45
2023/05/04 07:59:47;;;;;;;25.30;8.45;;;;;;;12.01;82.01;100706.00;5011809;28;20059;-51
2023/05/04 08:02:14;;;;;;;14.35;7.55;;;;;;;12.00;81.96;100696.06;5018300;28;21393;-46
2023/05/04 08:04:41;;;;;;;13.40;7.68;;;;;;;11.99;81.82;100691.69;5023865;28;20516;-48
2023/05/04 08:07:08;;;;;;;15.48;7.28;;;;;;;12.03;81.58;100682.28;5022849;28;20064;-48
2023/05/04 08:09:34;;;;;;;20.15;7.72;;;;;;;12.04;81.37;100672.00;5023033;28;20099;-49
2023/05/04 08:12:03;;;;;;;26.48;8.18;;;;;;;12.01;81.21;100667.16;5022713;28;20045;-47
2023/05/04 08:14:30;;;;;;;19.73;8.43;;;;;;;11.98;81.14;100665.91;5022720;28;20045;-49
2023/05/04 08:16:58;;;;;;;17.98;6.95;;;;;;;11.95;80.85;100658.28;5023366;28;20062;-48
2023/05/04 08:19:24;;;;;;;20.42;7.60;;;;;;;11.92;80.69;100659.00;5022578;28;20490;-50
2023/05/04 08:21:51;;;;;;;18.67;9.27;;;;;;;11.88;80.72;100662.84;5022144;28;20123;-46
2023/05/04 08:24:18;;;;;;;25.75;8.88;;;;;;;11.89;80.79;100670.81;5022819;28;21401;-46
2023/05/04 08:26:45;;;;;;;26.48;8.68;;;;;;;11.85;80.67;100660.78;5024009;28;20538;-47
2023/05/04 08:29:30;;;;;;;15.88;8.88;;;;;;;11.77;80.29;100657.03;5023707;28;20057;-45
2023/05/04 08:31:58;;;;;;;24.23;9.38;;;;;;;11.72;80.21;100664.78;5022928;28;20060;-46
2023/05/04 08:34:25;;;;;;;28.42;9.80;;;;;;;11.70;80.25;100664.34;5023184;28;20572;-47
2023/05/04 08:36:52;;;;;;;25.10;9.75;;;;;;;11.76;80.30;100668.44;5022264;28;20088;-45
2023/05/04 08:39:19;;;;;;;21.80;10.80;;;;;;;11.81;80.27;100679.31;5022342;28;20144;-50
2023/05/04 08:41:45;;;;;;;26.17;10.70;;;;;;;11.83;80.21;100679.75;5023421;28;20461;-45
2023/05/04 08:44:12;;;;;;;28.48;10.50;;;;;;;11.84;79.92;100678.59;5023168;28;20071;-52
2023/05/04 08:46:40;;;;;;;25.73;13.15;;;;;;;11.83;79.81;100665.91;5017196;28;20141;-49
2023/05/04 08:49:06;;;;;;;24.20;12.20;;;;;;;11.91;79.77;100668.50;4992562;28;20049;-45
2023/05/04 08:51:36;;;;;;;28.42;12.02;;;;;;;11.99;79.67;100666.72;5009373;28;20053;-46
2023/05/04 08:54:09;;;;;;;23.15;11.77;;;;;;;12.08;79.29;100667.34;5011305;28;20049;-47
2023/05/04 08:56:37;;;;;;;31.13;12.00;;;;;;;12.19;79.46;100662.88;5010060;28;20103;-45
2023/05/04 08:59:06;;;;;;;35.58;13.38;;;;;;;12.31;79.33;100654.44;5011083;28;20077;-43
2023/05/04 09:01:36;;;;;;;28.50;13.55;;;;;;;12.35;79.14;100647.03;5009895;28;20061;-45
2023/05/04 09:04:04;;;;;;;32.15;13.48;;;;;;;12.45;78.99;100640.09;4992841;28;20455;-50
2023/05/04 09:06:31;;;;;;;31.60;12.90;;;;;;;12.60;78.97;100651.19;5010750;28;20053;-49
2023/05/04 09:08:58;;;;;;;31.05;12.07;;;;;;;12.75;78.71;100647.59;5010231;28;20057;-48
2023/05/04 09:11:24;;;;;;;25.83;12.45;;;;;;;12.83;78.39;100654.94;5010442;28;20049;-51
2023/05/04 09:13:51;;;;;;;29.30;12.07;;;;;;;12.91;78.36;100649.50;5008784;28;20056;-45
2023/05/04 09:16:18;;;;;;;28.13;12.75;;;;;;;13.05;78.14;100644.28;5010865;28;20054;-47
2023/05/04 09:18:46;;;;;;;34.47;12.75;;;;;;;13.11;77.57;100649.19;4993183;28;20142;-45
2023/05/04 09:21:12;;;;;;;31.88;13.60;;;;;;;13.00;77.31;100648.13;5010191;28;20129;-47
2023/05/04 09:23:46;;;;;;;26.98;13.85;;;;;;;12.98;77.58;100661.59;5009411;28;20556;-45
2023/05/04 09:26:13;;;;;;;26.10;12.20;;;;;;;13.00;77.33;100641.78;5010267;28;20053;-44
2023/05/04 09:28:40;;;;;;;33.22;13.82;;;;;;;12.87;76.90;100632.75;5007206;28;20134;-51
2023/05/04 09:31:07;;;;;;;27.13;12.65;;;;;;;12.78;77.00;100632.97;5010082;28;20520;-49
2023/05/04 09:33:34;;;;;;;23.67;11.70;;;;;;;12.74;76.95;100626.53;5016392;28;20048;-45
2023/05/04 09:36:19;;;;;;;34.78;14.38;;;;;;;12.70;76.85;100627.63;5021561;28;20043;-47
2023/05/04 09:38:46;;;;;;;28.88;12.23;;;;;;;12.75;77.36;100624.56;5021166;28;20517;-47
2023/05/04 09:41:13;;;;;;;29.58;12.90;;;;;;;12.97;77.22;100635.00;5021547;28;20514;-44
2023/05/04 09:43:41;;;;;;;32.30;13.35;;;;;;;13.25;76.65;100637.59;5018748;28;20053;-47
2023/05/04 09:46:18;;;;;;;24.63;12.75;;;;;;;13.53;76.46;100640.94;5007765;28;20518;-47
2023/05/04 09:48:52;;;;;;;26.52;11.82;;;;;;;14.24;75.95;100636.66;5009720;28;20057;-49
2023/05/04 09:51:22;;;;;;;28.40;13.07;;;;;;;15.02;74.07;100631.13;5008964;28;20466;-45
2023/05/04 09:53:50;;;;;;;24.23;11.02;;;;;;;15.80;72.34;100635.69;5010404;28;20544;-45
2023/05/04 09:56:36;;;;;;;29.65;13.98;;;;;;;16.00;70.94;100622.31;5008577;28;20791;-45
2023/05/04 09:59:04;;;;;;;25.92;12.70;;;;;;;15.56;70.37;100632.63;5009473;28;20053;-47
2023/05/04 10:01:31;;;;;;;32.85;12.73;;;;;;;15.18;71.04;100634.53;5009207;28;20069;-45
2023/05/04 10:03:57;;;;;;;31.85;11.73;;;;;;;14.83;71.28;100642.41;5009812;28;20551;-49
2023/05/04 10:06:27;;;;;;;30.67;12.95;;;;;;;14.64;71.51;100625.78;5009596;28;20171;-46
2023/05/04 10:08:55;;;;;;;22.98;11.68;;;;;;;14.49;71.59;100630.34;5020161;28;20085;-45
2023/05/04 10:11:24;;;;;;;27.27;13.05;;;;;;;14.27;71.29;100627.56;5021969;28;20053;-45
2023/05/04 10:13:54;;;;;;;29.63;13.15;;;;;;;14.42;71.74;100621.09;5021051;28;20049;-45
2023/05/04 10:16:26;;;;;;;21.58;10.55;;;;;;;15.18;70.09;100600.25;5003088;28;20049;-47
2023/05/04 10:19:07;;;;;;;29.88;14.27;;;;;;;15.57;68.59;100597.94;5021773;28;20505;-45
2023/05/04 10:21:42;;;;;;;27.40;12.00;;;;;;;16.01;67.81;100607.19;5020960;28;20060;-45
2023/05/04 10:24:46;;;;;;;25.10;11.75;;;;;;;16.19;66.91;100604.53;5021244;28;20065;-45
2023/05/04 10:27:20;;;;;;;23.15;11.90;;;;;;;16.03;66.58;100606.78;5007129;28;20558;-44
2023/05/04 10:29:49;;;;;;;23.10;11.88;;;;;;;15.80;66.11;100595.81;5024675;28;20049;-47
2023/05/04 10:32:20;;;;;;;28.45;12.85;;;;;;;15.42;66.60;100588.59;5024359;28;20096;-50
2023/05/04 10:34:50;;;;;;;23.20;12.25;;;;;;;14.93;66.88;100583.19;5007388;28;20057;-47
2023/05/04 10:37:19;;;;;;;40.55;13.75;;;;;;;14.44;67.34;100571.38;5025009;28;20625;-47
2023/05/04 10:39:53;;;;;;;29.95;12.82;;;;;;;14.10;68.22;100580.75;5025054;28;20391;-51
2023/05/04 10:42:20;;;;;;;35.13;14.20;;;;;;;13.86;68.66;100568.81;5024039;28;20042;-44
2023/05/04 10:44:52;;;;;;;25.50;10.98;;;;;;;13.66;69.17;100560.91;5024704;28;20092;-52
2023/05/04 10:47:35;;;;;;;30.88;12.82;;;;;;;13.56;69.61;100576.22;5025442;28;20064;-44
2023/05/04 10:50:07;;;;;;;32.45;13.40;;;;;;;13.47;69.63;100566.50;5024826;28;20057;-44
2023/05/04 10:52:47;;;;;;;30.75;12.90;;;;;;;13.42;69.95;100559.28;5023818;28;20140;-44
2023/05/04 10:55:15;;;;;;;28.58;12.18;;;;;;;13.37;70.07;100551.22;5024619;28;21464;-45
2023/05/04 10:57:50;;;;;;;36.90;14.02;;;;;;;13.36;70.32;100544.06;5006583;28;20071;-45
2023/05/04 11:00:18;;;;;;;26.75;12.43;;;;;;;13.39;70.50;100543.34;5024505;28;20073;-45
2023/05/04 11:02:46;;;;;;;28.55;12.50;;;;;;;13.27;70.51;100535.16;5024238;28;20049;-48
2023/05/04 11:05:17;;;;;;;32.60;13.68;;;;;;;13.24;70.65;100533.09;5006896;28;20557;-48
2023/05/04 11:07:44;;;;;;;33.88;12.45;;;;;;;13.29;70.86;100528.03;5024641;28;20033;-45
2023/05/04 11:10:25;;;;;;;38.30;14.25;;;;;;;13.32;70.70;100530.09;5024256;28;20056;-44
2023/05/04 11:12:54;;;;;;;33.50;13.35;;;;;;;13.30;70.83;100528.84;5024037;28;20050;-46
2023/05/04 11:15:21;;;;;;;30.55;14.50;;;;;;;13.34;70.88;100519.41;5024019;28;20120;-50
2023/05/04 11:17:51;;;;;;;28.27;11.88;;;;;;;13.41;70.96;100527.06;5024475;28;20050;-49
2023/05/04 11:20:23;;;;;;;26.02;13.27;;;;;;;13.34;70.84;100524.19;5024209;28;20435;-44
2023/05/04 11:22:51;;;;;;;;;;;;;;;13.31;70.79;100524.91;5024761;28;20049;-45